Time;durP1;ratioP1;P1;durP2;ratioP2;P2;SDS_P1;SDS_P2;PMS_P1;PMS_P2;Temp;Humidity;BMP_temperature;BMP_pressure;BME280_temperature;BME280_humidity;BME280_pressure;Samples;Min_cycle;Max_cycle;Signal;HPM_P1;HPM_P2
2022/02/17 00:00:06;;;;;;;;;;;13.40;99.90;;;;;;5049182;28;19959;-65
2022/02/17 00:02:32;;;;;;;;;;;13.30;99.90;;;;;;5049952;28;19964;-71
2022/02/17 00:04:58;;;;;;;;;;;13.30;99.90;;;;;;5050821;28;19948;-67
2022/02/17 00:07:23;;;;;;;;;;;13.30;99.90;;;;;;5049936;28;19943;-64
2022/02/17 00:09:49;;;;;;;;;;;13.30;99.90;;;;;;5050176;28;19908;-70
2022/02/17 00:12:14;;;;;;;;;;;13.30;99.90;;;;;;5051423;28;19909;-64
2022/02/17 00:14:41;;;;;;;;;;;13.30;99.90;;;;;;5050256;28;19925;-70
2022/02/17 00:17:06;;;;;;;;;;;13.30;99.90;;;;;;5050941;28;19913;-65
2022/02/17 00:19:32;;;;;;;;;;;13.20;99.90;;;;;;5032681;28;19965;-64
2022/02/17 00:21:58;;;;;;;;;;;13.20;99.90;;;;;;5037029;28;19905;-65
2022/02/17 00:24:23;;;;;;;;;;;13.20;99.90;;;;;;5056284;28;20319;-65
2022/02/17 00:26:49;;;;;;;;;;;13.20;99.90;;;;;;5054402;28;20003;-64
2022/02/17 00:29:14;;;;;;;;;;;13.20;99.90;;;;;;5055052;28;19990;-63
2022/02/17 00:31:41;;;;;;;;;;;13.20;99.90;;;;;;5036112;28;19912;-63
2022/02/17 00:34:08;;;;;;;;;;;13.20;99.90;;;;;;5053784;28;19958;-64
2022/02/17 00:36:34;;;;;;;;;;;13.10;99.90;;;;;;5035876;28;19904;-67
2022/02/17 00:38:59;;;;;;;;;;;13.20;99.90;;;;;;5036478;28;19912;-64
2022/02/17 00:41:25;;;;;;;;;;;13.10;99.90;;;;;;5036099;28;19905;-65
2022/02/17 00:43:51;;;;;;;;;;;13.10;99.90;;;;;;5053157;28;19912;-64
2022/02/17 00:46:17;;;;;;;;;;;13.00;99.90;;;;;;5053758;28;19905;-63
2022/02/17 00:48:42;;;;;;;;;;;13.10;99.90;;;;;;5053184;28;19911;-63
2022/02/17 00:51:08;;;;;;;;;;;13.10;99.90;;;;;;5054529;28;19905;-65
2022/02/17 00:53:34;;;;;;;;;;;13.00;99.90;;;;;;5054088;28;19912;-63
2022/02/17 00:55:59;;;;;;;;;;;13.10;99.90;;;;;;5036174;28;19908;-66
2022/02/17 00:58:25;;;;;;;;;;;13.10;99.90;;;;;;5055484;28;19908;-65
2022/02/17 01:00:50;;;;;;;;;;;13.10;99.90;;;;;;5054891;28;19972;-65
2022/02/17 01:03:16;;;;;;;;;;;13.10;99.90;;;;;;5035805;28;19905;-63
2022/02/17 01:05:41;;;;;;;;;;;13.10;99.90;;;;;;5053554;28;19909;-68
2022/02/17 01:08:08;;;;;;;;;;;13.10;99.90;;;;;;5055971;28;19904;-64
2022/02/17 01:10:33;;;;;;;;;;;13.10;99.90;;;;;;5036708;28;20344;-65
2022/02/17 01:13:00;;;;;;;;;;;13.10;99.90;;;;;;5054320;28;19960;-68
2022/02/17 01:15:25;;;;;;;;;;;13.20;99.90;;;;;;5055902;28;19921;-67
2022/02/17 01:17:51;;;;;;;;;;;13.20;99.90;;;;;;5036778;28;20365;-64
2022/02/17 01:20:16;;;;;;;;;;;13.20;99.90;;;;;;5054665;28;19909;-65
2022/02/17 01:22:45;;;;;;;;;;;13.20;99.90;;;;;;5053270;28;20281;-64
2022/02/17 01:25:14;;;;;;;;;;;13.20;99.90;;;;;;5053798;28;19911;-63
2022/02/17 01:27:39;;;;;;;;;;;13.20;99.90;;;;;;5035237;28;19905;-64
2022/02/17 01:30:05;;;;;;;;;;;13.20;99.90;;;;;;5035545;28;20003;-65
2022/02/17 01:32:31;;;;;;;;;;;13.20;99.90;;;;;;5055473;28;19911;-63
2022/02/17 01:34:57;;;;;;;;;;;13.20;99.90;;;;;;5057551;28;20548;-67
2022/02/17 01:37:24;;;;;;;;;;;13.30;99.90;;;;;;5058221;28;19909;-63
2022/02/17 01:39:50;;;;;;;;;;;13.20;99.90;;;;;;5039847;28;19915;-68
2022/02/17 01:42:16;;;;;;;;;;;13.20;99.90;;;;;;5040038;28;19964;-63
2022/02/17 01:44:41;;;;;;;;;;;13.10;99.90;;;;;;5058480;28;19948;-65
2022/02/17 01:47:08;;;;;;;;;;;13.10;99.90;;;;;;5060097;28;19904;-64
2022/02/17 01:49:34;;;;;;;;;;;13.10;99.90;;;;;;5042217;28;20481;-64
2022/02/17 01:51:59;;;;;;;;;;;13.00;99.90;;;;;;5058933;28;19954;-65
2022/02/17 01:54:25;;;;;;;;;;;12.90;99.90;;;;;;5059581;28;19905;-65
2022/02/17 01:56:51;;;;;;;;;;;12.90;99.90;;;;;;5058082;28;19992;-64
2022/02/17 01:59:16;;;;;;;;;;;12.90;99.90;;;;;;5058993;28;20366;-70
2022/02/17 02:01:42;;;;;;;;;;;12.90;99.90;;;;;;5058347;28;19958;-67
2022/02/17 02:04:07;;;;;;;;;;;12.70;99.90;;;;;;5058066;28;20316;-70
2022/02/17 02:06:33;;;;;;;;;;;12.80;99.90;;;;;;5058416;28;19944;-64
2022/02/17 02:09:00;;;;;;;;;;;12.80;99.90;;;;;;5039667;28;20176;-64
2022/02/17 02:11:25;;;;;;;;;;;12.80;99.90;;;;;;5039113;28;19911;-64
2022/02/17 02:13:50;;;;;;;;;;;12.80;99.90;;;;;;5055895;28;19916;-63
2022/02/17 02:16:16;;;;;;;;;;;12.80;99.90;;;;;;5038654;28;20000;-63
2022/02/17 02:18:41;;;;;;;;;;;12.80;99.90;;;;;;5038234;28;20324;-63
2022/02/17 02:21:07;;;;;;;;;;;12.80;99.90;;;;;;5038380;28;19908;-63
2022/02/17 02:23:33;;;;;;;;;;;12.80;99.90;;;;;;5056029;28;19904;-63
2022/02/17 02:25:59;;;;;;;;;;;12.70;99.90;;;;;;5037990;28;19991;-63
2022/02/17 02:28:25;;;;;;;;;;;12.70;99.90;;;;;;5056297;28;19912;-64
2022/02/17 02:30:51;;;;;;;;;;;12.80;99.90;;;;;;5055636;28;20285;-63
2022/02/17 02:33:17;;;;;;;;;;;12.80;99.90;;;;;;5038906;28;20000;-63
2022/02/17 02:35:43;;;;;;;;;;;12.80;99.90;;;;;;5055880;28;19905;-64
2022/02/17 02:38:09;;;;;;;;;;;12.80;99.90;;;;;;5056338;28;20342;-64
2022/02/17 02:40:34;;;;;;;;;;;12.90;99.90;;;;;;5056589;28;20026;-63
2022/02/17 02:43:00;;;;;;;;;;;12.80;99.90;;;;;;5055670;28;19912;-66
2022/02/17 02:45:26;;;;;;;;;;;12.80;99.90;;;;;;5038033;28;19912;-63
2022/02/17 02:47:51;;;;;;;;;;;12.70;99.90;;;;;;5056017;28;19909;-63
2022/02/17 02:50:17;;;;;;;;;;;12.70;99.90;;;;;;5056213;28;19915;-63
2022/02/17 02:52:42;;;;;;;;;;;12.70;99.90;;;;;;5055336;28;19905;-64
2022/02/17 02:55:08;;;;;;;;;;;12.60;99.90;;;;;;5056039;28;19904;-63
2022/02/17 02:57:33;;;;;;;;;;;12.60;99.90;;;;;;5055714;28;19909;-64
2022/02/17 02:59:59;;;;;;;;;;;12.70;99.90;;;;;;5055370;28;19909;-65
2022/02/17 03:02:25;;;;;;;;;;;12.70;99.90;;;;;;5055766;28;19971;-63
2022/02/17 03:04:50;;;;;;;;;;;12.70;99.90;;;;;;5037293;28;19905;-63
2022/02/17 03:07:16;;;;;;;;;;;12.70;99.90;;;;;;5037885;28;19940;-63
2022/02/17 03:09:41;;;;;;;;;;;12.70;99.90;;;;;;5055921;28;20295;-63
2022/02/17 03:12:07;;;;;;;;;;;12.80;99.90;;;;;;5055387;28;20338;-63
2022/02/17 03:14:32;;;;;;;;;;;12.80;99.90;;;;;;5055491;28;19921;-62
2022/02/17 03:16:58;;;;;;;;;;;12.80;99.90;;;;;;5055364;28;19905;-62
2022/02/17 03:19:24;;;;;;;;;;;12.90;99.90;;;;;;5056005;28;20277;-67
2022/02/17 03:21:49;;;;;;;;;;;12.90;99.90;;;;;;5054829;28;19911;-65
2022/02/17 03:24:15;;;;;;;;;;;13.00;99.90;;;;;;5055579;28;19905;-63
2022/02/17 03:26:41;;;;;;;;;;;13.00;99.90;;;;;;5055804;28;20000;-64
2022/02/17 03:29:06;;;;;;;;;;;13.00;99.90;;;;;;5054891;28;19905;-65
2022/02/17 03:31:32;;;;;;;;;;;13.00;99.90;;;;;;5055985;28;19909;-63
2022/02/17 03:33:57;;;;;;;;;;;13.00;99.90;;;;;;5055583;28;19904;-64
2022/02/17 03:36:23;;;;;;;;;;;13.10;99.90;;;;;;5021274;28;19953;-65
2022/02/17 03:38:48;;;;;;;;;;;13.10;99.90;;;;;;5055094;28;19909;-63
2022/02/17 03:41:14;;;;;;;;;;;13.00;99.90;;;;;;5037694;28;20346;-63
2022/02/17 03:43:39;;;;;;;;;;;13.10;99.90;;;;;;5055804;28;19912;-66
2022/02/17 03:46:05;;;;;;;;;;;13.10;99.90;;;;;;5037017;28;20459;-63
2022/02/17 03:48:30;;;;;;;;;;;13.10;99.90;;;;;;5056686;28;19954;-65
2022/02/17 03:50:56;;;;;;;;;;;13.10;99.90;;;;;;5055561;28;19958;-64
2022/02/17 03:53:21;;;;;;;;;;;13.10;99.90;;;;;;5055887;28;19908;-63
2022/02/17 03:55:47;;;;;;;;;;;13.10;99.90;;;;;;5038078;28;20341;-65
2022/02/17 03:59:00;;;;;;;;;;;13.10;99.90;;;;;;5038314;28;19995;-63
2022/02/17 04:01:01;;;;;;;;;;;13.00;99.90;;;;;;5055140;28;19931;-63
2022/02/17 04:03:26;;;;;;;;;;;13.00;99.90;;;;;;5056627;28;20353;-66
2022/02/17 04:05:52;;;;;;;;;;;13.10;99.90;;;;;;5037701;28;20014;-64
2022/02/17 04:08:18;;;;;;;;;;;13.10;99.90;;;;;;5037636;28;19904;-63
2022/02/17 04:10:43;;;;;;;;;;;13.00;99.90;;;;;;5055816;28;20262;-65
2022/02/17 04:13:08;;;;;;;;;;;12.90;99.90;;;;;;5055166;28;19916;-64
2022/02/17 04:15:34;;;;;;;;;;;13.00;99.90;;;;;;5054531;28;19928;-64
2022/02/17 04:17:59;;;;;;;;;;;12.90;99.90;;;;;;5054361;28;20306;-64
2022/02/17 04:20:25;;;;;;;;;;;12.90;99.90;;;;;;5054601;28;19915;-63
2022/02/17 04:22:50;;;;;;;;;;;12.90;99.90;;;;;;5054892;28;19905;-64
2022/02/17 04:25:16;;;;;;;;;;;12.80;99.90;;;;;;5055797;28;19905;-64
2022/02/17 04:27:41;;;;;;;;;;;12.80;99.90;;;;;;5055197;28;19915;-66
2022/02/17 04:30:07;;;;;;;;;;;12.80;99.90;;;;;;5054983;28;20121;-64
2022/02/17 04:32:33;;;;;;;;;;;12.80;99.90;;;;;;5055178;28;19905;-64
2022/02/17 04:34:58;;;;;;;;;;;12.70;99.80;;;;;;5034947;28;19905;-68
2022/02/17 04:37:25;;;;;;;;;;;12.60;99.30;;;;;;5056286;28;20357;-64
2022/02/17 04:39:52;;;;;;;;;;;12.60;99.40;;;;;;5037883;28;19915;-70
2022/02/17 04:42:19;;;;;;;;;;;12.50;98.90;;;;;;5038829;28;20309;-64
2022/02/17 04:44:46;;;;;;;;;;;12.50;99.40;;;;;;5038211;28;19913;-70
2022/02/17 04:47:13;;;;;;;;;;;12.50;99.90;;;;;;5036595;28;20006;-63
2022/02/17 04:49:39;;;;;;;;;;;12.50;99.90;;;;;;5055674;28;19912;-65
2022/02/17 04:52:05;;;;;;;;;;;12.50;99.60;;;;;;5037358;28;20342;-64
2022/02/17 04:54:31;;;;;;;;;;;12.50;99.30;;;;;;5038643;28;19912;-69
2022/02/17 04:56:56;;;;;;;;;;;12.40;98.70;;;;;;5056122;28;19905;-70
2022/02/17 04:59:23;;;;;;;;;;;12.30;99.00;;;;;;5038577;28;19913;-67
2022/02/17 05:01:49;;;;;;;;;;;12.30;98.10;;;;;;5055363;28;20004;-65
2022/02/17 05:04:15;;;;;;;;;;;12.30;98.30;;;;;;5037276;28;20353;-66
2022/02/17 05:06:40;;;;;;;;;;;12.30;98.00;;;;;;5054468;28;19911;-65
2022/02/17 05:09:06;;;;;;;;;;;12.30;97.60;;;;;;5054241;28;20289;-75
2022/02/17 05:11:31;;;;;;;;;;;12.30;97.30;;;;;;5055861;28;19915;-64
2022/02/17 05:13:57;;;;;;;;;;;12.20;97.60;;;;;;5037376;28;19912;-65
2022/02/17 05:16:22;;;;;;;;;;;12.20;97.90;;;;;;5037682;28;19916;-64
2022/02/17 05:18:48;;;;;;;;;;;12.20;98.40;;;;;;5038092;28;19931;-66
2022/02/17 05:21:13;;;;;;;;;;;12.20;98.60;;;;;;5037280;28;19947;-64
2022/02/17 05:23:39;;;;;;;;;;;12.20;98.40;;;;;;5055137;28;19958;-64
2022/02/17 05:26:04;;;;;;;;;;;12.10;98.60;;;;;;5054623;28;19912;-65
2022/02/17 05:28:30;;;;;;;;;;;12.10;98.80;;;;;;5020986;28;20320;-66
2022/02/17 05:30:55;;;;;;;;;;;12.10;98.40;;;;;;5036593;28;19912;-67
2022/02/17 05:33:21;;;;;;;;;;;12.10;98.30;;;;;;5037701;28;19959;-63
2022/02/17 05:35:47;;;;;;;;;;;12.10;98.80;;;;;;5054593;28;19905;-63
2022/02/17 05:38:13;;;;;;;;;;;12.00;98.60;;;;;;5054204;28;19909;-69
2022/02/17 05:40:39;;;;;;;;;;;12.00;98.70;;;;;;5054991;28;20286;-64
2022/02/17 05:43:05;;;;;;;;;;;12.00;98.50;;;;;;5054088;28;19923;-63
2022/02/17 05:45:30;;;;;;;;;;;12.00;98.60;;;;;;5054225;28;19976;-67
2022/02/17 05:47:56;;;;;;;;;;;12.00;98.90;;;;;;5053879;28;19912;-65
2022/02/17 05:50:23;;;;;;;;;;;12.00;98.70;;;;;;5054449;28;20281;-64
2022/02/17 05:52:49;;;;;;;;;;;12.00;98.90;;;;;;5054306;28;20350;-64
2022/02/17 05:55:15;;;;;;;;;;;11.90;99.00;;;;;;5053641;28;19911;-68
2022/02/17 05:57:41;;;;;;;;;;;11.90;98.90;;;;;;5036246;28;19931;-62
2022/02/17 06:00:08;;;;;;;;;;;11.90;99.00;;;;;;5035715;28;19916;-64
2022/02/17 06:02:33;;;;;;;;;;;11.90;99.10;;;;;;5054668;28;19966;-64
2022/02/17 06:04:59;;;;;;;;;;;11.90;99.00;;;;;;5053598;28;20354;-68
2022/02/17 06:07:24;;;;;;;;;;;11.80;99.20;;;;;;5054284;28;19904;-65
2022/02/17 06:09:50;;;;;;;;;;;11.80;99.00;;;;;;5054594;28;19916;-64
2022/02/17 06:12:15;;;;;;;;;;;11.90;99.00;;;;;;5035934;28;20007;-63
2022/02/17 06:14:41;;;;;;;;;;;11.80;99.00;;;;;;5036507;28;19975;-64
2022/02/17 06:17:06;;;;;;;;;;;11.90;99.00;;;;;;5053213;28;20377;-63
2022/02/17 06:19:32;;;;;;;;;;;11.90;99.20;;;;;;5055371;28;20004;-63
2022/02/17 06:21:57;;;;;;;;;;;11.80;99.60;;;;;;5057358;28;19912;-66
2022/02/17 06:24:23;;;;;;;;;;;11.80;99.60;;;;;;5057930;28;19904;-63
2022/02/17 06:26:48;;;;;;;;;;;11.80;99.90;;;;;;5056776;28;19966;-66
2022/02/17 06:29:14;;;;;;;;;;;11.70;99.90;;;;;;5038351;28;20079;-63
2022/02/17 06:31:40;;;;;;;;;;;11.60;99.90;;;;;;5057534;28;19905;-66
2022/02/17 06:34:05;;;;;;;;;;;11.70;99.90;;;;;;5039092;28;19911;-64
2022/02/17 06:36:31;;;;;;;;;;;11.70;99.80;;;;;;5058185;28;20352;-64
2022/02/17 06:38:56;;;;;;;;;;;11.60;99.90;;;;;;5057380;28;19912;-64
2022/02/17 06:41:23;;;;;;;;;;;11.60;99.90;;;;;;5039803;28;20013;-63
2022/02/17 06:43:48;;;;;;;;;;;11.60;99.90;;;;;;5039184;28;20385;-62
2022/02/17 06:46:14;;;;;;;;;;;11.60;99.90;;;;;;5056170;28;19909;-64
2022/02/17 06:48:40;;;;;;;;;;;11.60;99.90;;;;;;5056958;28;19904;-64
2022/02/17 06:51:06;;;;;;;;;;;11.60;99.90;;;;;;5038262;28;19905;-64
2022/02/17 06:53:31;;;;;;;;;;;11.60;99.90;;;;;;5038755;28;20325;-64
2022/02/17 06:55:57;;;;;;;;;;;11.60;99.90;;;;;;5055877;28;19905;-70
2022/02/17 06:58:23;;;;;;;;;;;11.50;99.90;;;;;;5038716;28;20254;-65
2022/02/17 07:00:49;;;;;;;;;;;11.50;99.90;;;;;;5056989;28;19954;-65
2022/02/17 07:03:14;;;;;;;;;;;11.60;99.90;;;;;;5056112;28;19911;-64
2022/02/17 07:05:40;;;;;;;;;;;11.60;99.90;;;;;;5049709;28;20047;-63
2022/02/17 07:08:06;;;;;;;;;;;11.60;99.90;;;;;;5054866;28;19932;-65
2022/02/17 07:13:16;;;;;;;;;;;11.50;99.90;;;;;;5056342;28;19912;-65
2022/02/17 07:15:43;;;;;;;;;;;11.50;99.90;;;;;;5056179;28;19925;-63
2022/02/17 07:18:09;;;;;;;;;;;11.50;99.90;;;;;;5054906;28;19908;-65
2022/02/17 07:20:38;;;;;;;;;;;11.60;99.90;;;;;;5056458;28;19908;-65
2022/02/17 07:23:04;;;;;;;;;;;11.50;99.90;;;;;;5055841;28;19911;-69
2022/02/17 07:25:30;;;;;;;;;;;11.50;99.90;;;;;;5056690;28;20003;-66
2022/02/17 07:27:56;;;;;;;;;;;11.40;99.90;;;;;;5056928;28;19958;-63
2022/02/17 07:30:21;;;;;;;;;;;11.40;99.90;;;;;;5037922;28;19909;-65
2022/02/17 07:32:46;;;;;;;;;;;11.20;99.90;;;;;;5039656;28;19953;-71
2022/02/17 07:35:12;;;;;;;;;;;11.10;99.90;;;;;;5057438;28;19905;-64
2022/02/17 07:37:38;;;;;;;;;;;11.00;99.90;;;;;;5057439;28;19912;-64
2022/02/17 07:40:05;;;;;;;;;;;10.90;99.90;;;;;;5038207;28;19909;-65
2022/02/17 07:42:30;;;;;;;;;;;10.80;99.90;;;;;;5038739;28;19930;-64
2022/02/17 07:44:56;;;;;;;;;;;10.80;99.90;;;;;;5039188;28;20402;-65
2022/02/17 07:47:22;;;;;;;;;;;10.80;99.90;;;;;;5056546;28;20353;-67
2022/02/17 07:49:49;;;;;;;;;;;11.90;99.90;;;;;;5056404;28;19909;-63
2022/02/17 07:52:14;;;;;;;;;;;12.30;99.90;;;;;;5055215;28;20280;-65
2022/02/17 07:54:40;;;;;;;;;;;11.60;99.90;;;;;;5049595;28;20007;-65
2022/02/17 07:57:05;;;;;;;;;;;11.10;99.90;;;;;;5043083;28;19905;-63
2022/02/17 07:59:31;;;;;;;;;;;10.90;99.90;;;;;;5048719;28;20492;-65
2022/02/17 08:01:57;;;;;;;;;;;10.90;99.90;;;;;;5030049;28;19908;-66
2022/02/17 08:04:23;;;;;;;;;;;11.20;99.90;;;;;;5032524;28;19948;-64
2022/02/17 08:06:48;;;;;;;;;;;11.40;99.90;;;;;;5044682;28;20361;-66
2022/02/17 08:09:14;;;;;;;;;;;11.60;99.90;;;;;;5044222;28;19909;-64
2022/02/17 08:11:39;;;;;;;;;;;11.80;99.90;;;;;;5052369;28;19963;-63
2022/02/17 08:14:05;;;;;;;;;;;12.10;99.90;;;;;;5023115;28;19912;-65
2022/02/17 08:16:31;;;;;;;;;;;12.40;99.90;;;;;;5027292;28;20289;-64
2022/02/17 08:18:56;;;;;;;;;;;12.40;99.90;;;;;;5033931;28;19920;-63
2022/02/17 08:21:22;;;;;;;;;;;12.60;99.90;;;;;;5030819;28;19912;-66
2022/02/17 08:23:49;;;;;;;;;;;12.70;99.90;;;;;;5033221;28;20262;-66
2022/02/17 08:26:14;;;;;;;;;;;12.80;99.90;;;;;;5031223;28;19909;-65
2022/02/17 08:28:40;;;;;;;;;;;12.40;99.90;;;;;;5038649;28;19958;-66
2022/02/17 08:31:05;;;;;;;;;;;12.30;99.90;;;;;;5047225;28;19920;-67
2022/02/17 08:33:31;;;;;;;;;;;12.50;99.90;;;;;;5033809;28;19909;-68
2022/02/17 08:35:57;;;;;;;;;;;12.60;99.90;;;;;;5023235;28;19909;-64
2022/02/17 08:38:30;;;;;;;;;;;12.80;99.90;;;;;;5020516;28;19920;-68
2022/02/17 08:40:55;;;;;;;;;;;12.90;99.90;;;;;;5017279;28;19917;-66
2022/02/17 08:43:21;;;;;;;;;;;13.20;99.90;;;;;;5025835;28;20125;-65
2022/02/17 08:45:47;;;;;;;;;;;13.00;99.90;;;;;;5028028;28;19919;-64
2022/02/17 08:48:12;;;;;;;;;;;13.10;99.90;;;;;;5029910;28;19915;-64
2022/02/17 08:50:40;;;;;;;;;;;13.30;99.90;;;;;;5030420;28;20255;-63
2022/02/17 08:53:06;;;;;;;;;;;13.10;99.90;;;;;;5029350;28;19909;-69
2022/02/17 08:55:31;;;;;;;;;;;12.90;99.90;;;;;;5030354;28;20329;-65
2022/02/17 08:57:57;;;;;;;;;;;13.10;99.90;;;;;;5028681;28;20401;-65
2022/02/17 09:00:23;;;;;;;;;;;13.20;99.90;;;;;;5029514;28;19917;-64
2022/02/17 09:02:48;;;;;;;;;;;13.10;99.90;;;;;;5035957;28;19905;-64
2022/02/17 09:05:14;;;;;;;;;;;13.50;99.90;;;;;;5035098;28;19943;-66
2022/02/17 09:07:39;;;;;;;;;;;13.50;99.90;;;;;;5035258;28;20277;-65
2022/02/17 09:10:06;;;;;;;;;;;13.60;99.90;;;;;;5033697;28;19912;-64
2022/02/17 09:12:32;;;;;;;;;;;14.10;99.20;;;;;;5015032;28;19924;-65
2022/02/17 09:14:58;;;;;;;;;;;14.30;99.90;;;;;;5026348;28;19972;-65
2022/02/17 09:17:23;;;;;;;;;;;14.90;99.80;;;;;;5013309;28;20343;-63
2022/02/17 09:19:49;;;;;;;;;;;14.90;97.30;;;;;;4995611;28;19917;-64
2022/02/17 09:22:14;;;;;;;;;;;15.20;99.60;;;;;;5007855;28;19905;-65
2022/02/17 09:24:40;;;;;;;;;;;14.90;96.80;;;;;;5010439;28;19909;-65
2022/02/17 09:27:05;;;;;;;;;;;14.70;96.00;;;;;;5003686;28;19912;-66
2022/02/17 09:29:31;;;;;;;;;;;14.20;97.50;;;;;;5005109;28;19906;-67
2022/02/17 09:31:57;;;;;;;;;;;14.30;96.80;;;;;;5005324;28;19913;-64
2022/02/17 09:34:23;;;;;;;;;;;14.50;96.80;;;;;;5009096;28;20013;-69
2022/02/17 09:36:48;;;;;;;;;;;14.80;98.60;;;;;;5005592;28;19917;-64
2022/02/17 09:39:14;;;;;;;;;;;14.90;95.80;;;;;;5004181;28;19913;-64
2022/02/17 09:41:46;;;;;;;;;;;14.60;94.70;;;;;;5012546;28;20361;-67
2022/02/17 09:44:12;;;;;;;;;;;14.80;95.60;;;;;;5011613;28;19917;-65
2022/02/17 09:46:45;;;;;;;;;;;15.10;93.20;;;;;;5014442;28;19913;-64
2022/02/17 09:49:14;;;;;;;;;;;15.10;92.50;;;;;;5009564;28;19999;-68
2022/02/17 09:51:39;;;;;;;;;;;15.20;92.60;;;;;;5004319;28;19910;-68
2022/02/17 09:54:05;;;;;;;;;;;15.30;93.10;;;;;;5000176;28;19910;-69
2022/02/17 09:56:31;;;;;;;;;;;15.60;94.00;;;;;;4999020;28;19912;-69
2022/02/17 09:58:57;;;;;;;;;;;15.50;90.40;;;;;;4997459;28;19910;-68
2022/02/17 10:01:26;;;;;;;;;;;16.00;98.20;;;;;;4998002;28;20362;-72
2022/02/17 10:04:10;;;;;;;;;;;16.60;96.30;;;;;;5000393;28;19913;-70
2022/02/17 10:06:43;;;;;;;;;;;16.70;85.00;;;;;;5002792;28;20375;-71
2022/02/17 10:09:09;;;;;;;;;;;16.10;83.90;;;;;;5012598;28;19905;-71
2022/02/17 10:11:35;;;;;;;;;;;16.30;83.60;;;;;;5013052;28;20286;-70
2022/02/17 10:14:02;;;;;;;;;;;16.70;81.70;;;;;;5011647;28;19917;-71
2022/02/17 10:16:28;;;;;;;;;;;16.50;81.40;;;;;;5040505;28;20427;-71
2022/02/17 10:18:55;;;;;;;;;;;16.30;78.90;;;;;;5035043;28;19952;-71
2022/02/17 10:21:20;;;;;;;;;;;16.30;77.10;;;;;;5052700;28;19925;-70
2022/02/17 10:23:46;;;;;;;;;;;15.80;77.00;;;;;;5034790;28;20354;-71
2022/02/17 10:26:13;;;;;;;;;;;16.20;76.60;;;;;;5034308;28;19913;-70
2022/02/17 10:28:40;;;;;;;;;;;16.60;73.90;;;;;;5034753;28;20621;-69
2022/02/17 10:31:20;;;;;;;;;;;16.40;73.70;;;;;;5034577;28;19925;-70
2022/02/17 10:33:46;;;;;;;;;;;15.90;73.80;;;;;;5035401;28;19909;-70
2022/02/17 10:36:12;;;;;;;;;;;15.90;75.10;;;;;;5045128;28;19948;-70
2022/02/17 10:38:38;;;;;;;;;;;16.60;75.50;;;;;;5023957;28;19966;-70
2022/02/17 10:41:04;;;;;;;;;;;16.80;77.00;;;;;;5033641;28;20280;-70
2022/02/17 10:43:30;;;;;;;;;;;16.90;73.50;;;;;;5035407;28;19917;-69
2022/02/17 10:46:03;;;;;;;;;;;16.60;72.70;;;;;;5032202;28;19948;-71
2022/02/17 10:48:29;;;;;;;;;;;16.50;73.30;;;;;;5013911;28;19909;-71
2022/02/17 10:51:04;;;;;;;;;;;15.90;74.20;;;;;;5032969;28;20015;-70
2022/02/17 10:53:31;;;;;;;;;;;15.60;76.50;;;;;;5015890;28;19915;-69
2022/02/17 10:55:56;;;;;;;;;;;15.60;75.90;;;;;;5015630;28;20000;-70
2022/02/17 10:58:27;;;;;;;;;;;15.60;76.80;;;;;;5032097;28;20334;-60
2022/02/17 11:00:59;;;;;;;;;;;15.80;77.00;;;;;;5013175;28;19971;-60
2022/02/17 11:03:34;;;;;;;;;;;16.80;93.40;;;;;;5013322;28;20336;-56
2022/02/17 11:06:00;;;;;;;;;;;16.90;79.40;;;;;;5035543;28;19988;-54
2022/02/17 11:08:26;;;;;;;;;;;16.60;90.30;;;;;;5035814;28;19928;-57
2022/02/17 11:10:51;;;;;;;;;;;16.70;81.80;;;;;;5039683;28;20350;-58
2022/02/17 11:13:22;;;;;;;;;;;16.20;80.60;;;;;;5053814;28;19908;-56
2022/02/17 11:15:48;;;;;;;;;;;15.80;76.60;;;;;;5054013;28;19928;-55
2022/02/17 11:18:18;;;;;;;;;;;16.10;77.30;;;;;;5053945;28;19964;-55
2022/02/17 11:20:44;;;;;;;;;;;16.50;80.80;;;;;;5047778;28;19944;-62
2022/02/17 11:23:10;;;;;;;;;;;16.40;82.70;;;;;;5048203;28;19911;-71
2022/02/17 11:25:37;;;;;;;;;;;16.70;90.50;;;;;;5032535;28;20349;-71
2022/02/17 11:28:04;;;;;;;;;;;15.90;70.00;;;;;;5038318;28;19989;-73
2022/02/17 11:30:31;;;;;;;;;;;15.10;71.70;;;;;;5040562;28;20356;-69
2022/02/17 11:33:15;;;;;;;;;;;14.90;73.40;;;;;;5060690;28;19904;-75
2022/02/17 11:35:41;;;;;;;;;;;14.80;76.10;;;;;;5053488;28;20046;-71
2022/02/17 11:38:25;;;;;;;;;;;15.40;84.30;;;;;;5045812;28;20004;-70
2022/02/17 11:41:10;;;;;;;;;;;15.90;85.20;;;;;;5035831;28;19955;-70
2022/02/17 11:43:36;;;;;;;;;;;15.80;77.90;;;;;;5046926;28;20258;-71
2022/02/17 11:46:02;;;;;;;;;;;15.80;76.50;;;;;;5026939;28;19919;-68
2022/02/17 11:48:35;;;;;;;;;;;16.20;74.60;;;;;;5035161;28;19909;-71
2022/02/17 11:51:17;;;;;;;;;;;16.30;73.30;;;;;;5017784;28;19905;-70
2022/02/17 11:53:50;;;;;;;;;;;15.80;73.00;;;;;;5038293;28;19908;-71
2022/02/17 11:56:15;;;;;;;;;;;15.00;72.60;;;;;;5021856;28;19913;-70
2022/02/17 11:58:41;;;;;;;;;;;14.60;76.60;;;;;;5055546;28;20389;-72
2022/02/17 12:01:25;;;;;;;;;;;14.50;81.20;;;;;;5029654;28;19920;-71
2022/02/17 12:04:01;;;;;;;;;;;14.10;84.20;;;;;;5036367;28;20002;-70
2022/02/17 12:06:30;;;;;;;;;;;14.00;86.60;;;;;;5042006;28;19909;-68
2022/02/17 12:08:55;;;;;;;;;;;13.50;89.40;;;;;;5023284;28;19904;-69
2022/02/17 12:11:25;;;;;;;;;;;13.60;88.70;;;;;;5031037;28;19932;-69
2022/02/17 12:13:51;;;;;;;;;;;13.20;89.50;;;;;;5036650;28;20012;-68
2022/02/17 12:16:36;;;;;;;;;;;13.10;90.00;;;;;;5020812;28;20095;-69
2022/02/17 12:19:08;;;;;;;;;;;13.00;90.40;;;;;;5035241;28;19919;-69
2022/02/17 12:21:35;;;;;;;;;;;13.10;91.10;;;;;;5038772;28;19939;-72
2022/02/17 12:24:04;;;;;;;;;;;13.10;91.40;;;;;;5036896;28;19976;-70
2022/02/17 12:26:42;;;;;;;;;;;13.00;90.30;;;;;;5037688;28;19904;-69
2022/02/17 12:29:20;;;;;;;;;;;13.00;85.80;;;;;;5030915;28;19915;-70
2022/02/17 12:31:46;;;;;;;;;;;12.90;84.90;;;;;;5048840;28;19913;-71
2022/02/17 12:34:12;;;;;;;;;;;13.00;83.50;;;;;;5035109;28;20148;-70
2022/02/17 12:36:37;;;;;;;;;;;13.00;82.50;;;;;;5055500;28;19912;-70
2022/02/17 12:39:04;;;;;;;;;;;12.90;82.90;;;;;;5038294;28;19917;-70
2022/02/17 12:41:29;;;;;;;;;;;12.90;84.40;;;;;;5032662;28;19935;-69
2022/02/17 12:43:55;;;;;;;;;;;12.60;89.60;;;;;;5022909;28;20386;-69
2022/02/17 12:46:20;;;;;;;;;;;12.40;93.10;;;;;;5032147;28;20108;-70
2022/02/17 12:48:46;;;;;;;;;;;12.30;93.80;;;;;;5055666;28;19970;-70
2022/02/17 12:51:24;;;;;;;;;;;12.00;94.10;;;;;;5037474;28;20086;-71
2022/02/17 12:53:52;;;;;;;;;;;11.80;96.30;;;;;;5041477;28;20029;-73
2022/02/17 12:56:25;;;;;;;;;;;11.50;99.00;;;;;;5055735;28;19928;-71
2022/02/17 12:58:50;;;;;;;;;;;11.30;99.90;;;;;;5037415;28;19909;-70
2022/02/17 13:01:23;;;;;;;;;;;11.00;99.90;;;;;;5019099;28;20014;-73
2022/02/17 13:03:48;;;;;;;;;;;11.00;99.90;;;;;;5019853;28;20325;-72
2022/02/17 13:06:25;;;;;;;;;;;10.90;99.90;;;;;;5044895;28;19912;-71
2022/02/17 13:09:01;;;;;;;;;;;11.00;99.90;;;;;;5051370;28;19913;-69
2022/02/17 13:11:27;;;;;;;;;;;10.80;99.90;;;;;;5023666;28;19917;-69
2022/02/17 13:14:09;;;;;;;;;;;10.90;99.90;;;;;;5035208;28;19917;-72
2022/02/17 13:16:36;;;;;;;;;;;11.10;99.90;;;;;;5045232;28;20003;-72
2022/02/17 13:19:03;;;;;;;;;;;10.90;99.90;;;;;;5045801;28;20347;-71
2022/02/17 13:21:28;;;;;;;;;;;11.00;99.90;;;;;;5035619;28;19908;-72
2022/02/17 13:24:11;;;;;;;;;;;11.40;99.90;;;;;;5055231;28;20329;-71
2022/02/17 13:26:37;;;;;;;;;;;12.10;99.90;;;;;;5032635;28;19909;-72
2022/02/17 13:29:04;;;;;;;;;;;12.70;99.90;;;;;;5050957;28;20007;-73
2022/02/17 13:31:34;;;;;;;;;;;12.80;99.90;;;;;;5034745;28;19952;-71
2022/02/17 13:34:19;;;;;;;;;;;12.70;99.90;;;;;;5035938;28;20132;-72
2022/02/17 13:36:45;;;;;;;;;;;12.70;99.90;;;;;;5055067;28;19905;-71
2022/02/17 13:39:11;;;;;;;;;;;12.80;99.90;;;;;;5037380;28;19989;-70
2022/02/17 13:41:37;;;;;;;;;;;13.30;99.90;;;;;;5038138;28;20145;-72
2022/02/17 13:44:03;;;;;;;;;;;13.30;99.90;;;;;;5059744;28;19920;-71
2022/02/17 13:46:29;;;;;;;;;;;13.30;99.90;;;;;;5058389;28;19904;-71
2022/02/17 13:48:54;;;;;;;;;;;13.60;99.90;;;;;;5041122;28;20388;-71
2022/02/17 13:51:21;;;;;;;;;;;13.70;99.90;;;;;;5036995;28;19905;-71
2022/02/17 13:53:47;;;;;;;;;;;13.80;99.90;;;;;;5037222;28;19904;-71
2022/02/17 13:56:16;;;;;;;;;;;14.40;99.00;;;;;;5039568;28;19909;-70
2022/02/17 13:58:42;;;;;;;;;;;14.80;97.60;;;;;;5037135;28;19909;-73
2022/02/17 14:01:08;;;;;;;;;;;15.00;95.30;;;;;;5056694;28;20262;-76
2022/02/17 14:03:34;;;;;;;;;;;14.80;96.20;;;;;;5056034;28;19905;-73
2022/02/17 14:06:14;;;;;;;;;;;14.40;97.10;;;;;;5039159;28;19905;-73
2022/02/17 14:08:39;;;;;;;;;;;14.70;96.90;;;;;;5056587;28;19905;-72
2022/02/17 14:11:05;;;;;;;;;;;14.80;97.00;;;;;;5038890;28;19930;-72
2022/02/17 14:13:30;;;;;;;;;;;14.90;95.80;;;;;;5054124;28;19951;-70
2022/02/17 14:15:57;;;;;;;;;;;14.30;96.40;;;;;;5036076;28;19943;-71